createdAt,value
2022-12-29T00:01:06.104Z,14.52
2022-12-29T00:03:34.699Z,16.60
2022-12-29T00:06:03.784Z,17.65
2022-12-29T00:08:41.646Z,13.20
2022-12-29T00:11:11.213Z,14.23
2022-12-29T00:13:57.778Z,11.35
2022-12-29T00:16:29.144Z,14.65
2022-12-29T00:18:57.640Z,15.30
2022-12-29T00:21:49.797Z,18.63
2022-12-29T00:24:37.291Z,12.82
2022-12-29T00:27:32.200Z,13.00
2022-12-29T00:30:19.383Z,13.07
2022-12-29T00:33:06.672Z,12.60
2022-12-29T00:35:40.528Z,13.40
2022-12-29T00:38:29.109Z,13.85
2022-12-29T00:41:15.047Z,12.18
2022-12-29T00:44:01.034Z,14.52
2022-12-29T00:46:29.339Z,12.55
2022-12-29T00:49:17.023Z,11.63
2022-12-29T00:51:46.826Z,11.52
2022-12-29T00:54:15.387Z,11.98
2022-12-29T00:56:43.773Z,10.57
2022-12-29T00:59:12.915Z,12.30
2022-12-29T01:01:41.575Z,16.70
2022-12-29T01:04:11.686Z,11.55
2022-12-29T01:06:41.975Z,13.40
2022-12-29T01:09:34.081Z,14.88
2022-12-29T01:12:02.368Z,11.23
2022-12-29T01:14:30.580Z,13.98
2022-12-29T01:16:59.685Z,12.73
2022-12-29T01:19:29.287Z,9.88
2022-12-29T01:21:58.386Z,13.57
2022-12-29T01:24:27.456Z,9.13
2022-12-29T01:26:56.507Z,10.65
2022-12-29T01:29:24.796Z,15.25
2022-12-29T01:31:53.572Z,13.18
2022-12-29T01:34:21.786Z,10.68
2022-12-29T01:36:51.408Z,10.85
2022-12-29T01:39:19.646Z,8.68
2022-12-29T01:41:47.848Z,10.80
2022-12-29T01:44:58.092Z,9.00
2022-12-29T01:47:38.622Z,10.00
2022-12-29T01:50:11.633Z,10.93
2022-12-29T01:52:44.942Z,10.80
2022-12-29T01:55:14.509Z,8.85
2022-12-29T01:57:48.579Z,9.65
2022-12-29T02:00:18.109Z,12.32
2022-12-29T02:02:51.955Z,10.30
2022-12-29T02:05:27.151Z,10.98
2022-12-29T02:07:57.174Z,12.02
2022-12-29T02:10:27.963Z,11.93
2022-12-29T02:12:57.972Z,10.20
2022-12-29T02:15:50.402Z,10.25
2022-12-29T02:18:28.429Z,10.52
2022-12-29T02:21:29.634Z,10.73
2022-12-29T02:24:29.169Z,10.35
2022-12-29T02:27:13.211Z,10.13
2022-12-29T02:30:04.349Z,9.40
2022-12-29T02:32:44.449Z,8.88
2022-12-29T02:35:23.336Z,10.15
2022-12-29T02:38:00.581Z,11.27
2022-12-29T02:40:36.746Z,12.35
2022-12-29T02:43:15.910Z,8.88
2022-12-29T02:45:50.694Z,8.25
2022-12-29T02:48:26.771Z,8.50
2022-12-29T02:51:02.636Z,8.18
2022-12-29T02:53:51.703Z,8.80
2022-12-29T02:56:21.105Z,8.02
2022-12-29T02:58:49.839Z,10.00
2022-12-29T03:01:36.228Z,9.43
2022-12-29T03:04:28.649Z,8.50
2022-12-29T03:07:04.438Z,9.77
2022-12-29T03:09:42.313Z,12.60
2022-12-29T03:12:16.631Z,10.50
2022-12-29T03:15:11.867Z,10.90
2022-12-29T03:17:49.269Z,8.52
2022-12-29T03:20:24.039Z,11.70
2022-12-29T03:23:01.847Z,8.38
2022-12-29T03:25:35.949Z,7.30
2022-12-29T03:28:11.745Z,11.85
2022-12-29T03:30:46.208Z,8.63
2022-12-29T03:33:18.353Z,11.07
2022-12-29T03:35:51.493Z,12.52
2022-12-29T03:38:25.275Z,10.70
2022-12-29T03:40:58.688Z,12.15
2022-12-29T03:43:29.845Z,10.60
2022-12-29T03:45:58.735Z,11.48
2022-12-29T03:48:26.935Z,9.52
2022-12-29T03:50:58.581Z,8.52
2022-12-29T03:53:27.027Z,14.02
2022-12-29T03:55:55.244Z,9.70
2022-12-29T03:58:23.818Z,10.88
2022-12-29T04:01:06.961Z,10.80
2022-12-29T04:03:39.154Z,12.65
2022-12-29T04:06:09.153Z,11.38
2022-12-29T04:08:42.881Z,8.38
2022-12-29T04:11:11.155Z,15.30
2022-12-29T04:13:41.811Z,12.80
2022-12-29T04:16:12.163Z,12.05
2022-12-29T04:18:40.462Z,16.45
2022-12-29T04:21:10.272Z,12.07
2022-12-29T04:23:42.065Z,14.52
2022-12-29T04:26:12.194Z,13.48
2022-12-29T04:28:52.975Z,12.65
2022-12-29T04:31:39.670Z,15.27
2022-12-29T04:34:09.566Z,14.18
2022-12-29T04:36:40.633Z,14.55
2022-12-29T04:39:09.812Z,17.58
2022-12-29T04:41:40.185Z,12.93
2022-12-29T04:44:11.287Z,13.02
2022-12-29T04:46:39.589Z,15.52
2022-12-29T04:49:11.945Z,15.55
2022-12-29T04:52:00.394Z,17.33
2022-12-29T04:54:29.184Z,17.90
2022-12-29T04:57:09.056Z,15.82
2022-12-29T04:59:39.782Z,17.50
2022-12-29T05:02:09.540Z,15.38
2022-12-29T05:04:38.251Z,15.20
2022-12-29T05:07:07.829Z,18.65
2022-12-29T05:09:36.237Z,18.13
2022-12-29T05:12:04.680Z,17.30
2022-12-29T05:14:34.989Z,15.30
2022-12-29T05:17:04.748Z,15.35
2022-12-29T05:19:32.991Z,18.58
2022-12-29T05:22:02.011Z,15.50
2022-12-29T05:24:33.155Z,15.32
2022-12-29T05:27:02.618Z,15.25
2022-12-29T05:29:49.119Z,17.17
2022-12-29T05:32:17.592Z,19.02
2022-12-29T05:34:47.375Z,13.85
2022-12-29T05:37:15.661Z,17.40
2022-12-29T05:39:45.672Z,20.65
2022-12-29T05:42:15.007Z,18.58
2022-12-29T05:44:54.978Z,13.43
2022-12-29T05:47:36.797Z,20.55
2022-12-29T05:50:14.233Z,15.85
2022-12-29T05:53:10.212Z,14.50
2022-12-29T05:55:46.785Z,16.35
2022-12-29T05:58:18.208Z,17.65
2022-12-29T06:00:46.965Z,14.95
2022-12-29T06:03:16.102Z,14.60
2022-12-29T06:05:46.998Z,15.98
2022-12-29T06:08:17.195Z,14.70
2022-12-29T06:10:47.300Z,18.10
2022-12-29T06:13:15.635Z,12.30
2022-12-29T06:15:46.161Z,14.73
2022-12-29T06:18:19.608Z,14.85
2022-12-29T06:20:49.319Z,12.45
2022-12-29T06:23:20.085Z,12.90
2022-12-29T06:25:50.739Z,13.48
2022-12-29T06:28:19.295Z,10.98
2022-12-29T06:30:48.137Z,12.20
2022-12-29T06:33:16.622Z,14.73
2022-12-29T06:35:46.886Z,15.00
2022-12-29T06:38:16.760Z,13.55
2022-12-29T06:40:46.172Z,13.82
2022-12-29T06:43:24.783Z,11.15
2022-12-29T06:46:13.427Z,11.55
2022-12-29T06:48:43.128Z,12.10
2022-12-29T06:51:11.275Z,12.45
2022-12-29T06:53:39.530Z,14.43
2022-12-29T06:56:08.090Z,14.60
2022-12-29T06:58:37.691Z,14.18
2022-12-29T07:01:06.261Z,14.15
2022-12-29T07:03:34.588Z,14.32
2022-12-29T07:06:02.766Z,14.63
2022-12-29T07:08:31.054Z,15.57
2022-12-29T07:10:59.195Z,11.95
2022-12-29T07:13:27.459Z,12.93
2022-12-29T07:15:57.063Z,13.60
2022-12-29T07:18:25.259Z,13.10
2022-12-29T07:20:53.415Z,15.30
2022-12-29T07:23:21.686Z,13.38
2022-12-29T07:25:49.867Z,13.48
2022-12-29T07:28:18.075Z,14.75
2022-12-29T07:30:48.486Z,15.20
2022-12-29T07:33:18.079Z,13.27
2022-12-29T07:35:46.600Z,15.38
2022-12-29T07:38:15.197Z,11.43
2022-12-29T07:40:43.416Z,14.88
2022-12-29T07:43:11.724Z,15.43
2022-12-29T07:45:46.468Z,10.25
2022-12-29T07:48:14.767Z,12.00
2022-12-29T07:50:44.356Z,13.52
2022-12-29T07:53:12.611Z,13.43
2022-12-29T07:55:40.837Z,13.65
2022-12-29T07:58:09.327Z,12.45
2022-12-29T08:00:39.047Z,11.95
2022-12-29T08:03:07.508Z,9.98
2022-12-29T08:05:36.513Z,11.32
2022-12-29T08:08:06.595Z,12.93
2022-12-29T08:10:34.740Z,13.13
2022-12-29T08:13:03.024Z,11.65
2022-12-29T08:15:32.673Z,11.30
2022-12-29T08:18:01.337Z,9.32
2022-12-29T08:20:29.548Z,15.90
2022-12-29T08:22:58.018Z,11.80
2022-12-29T08:25:27.617Z,10.27
2022-12-29T08:27:55.860Z,12.00
2022-12-29T08:30:24.494Z,11.63
2022-12-29T08:32:52.871Z,12.10
2022-12-29T08:35:21.163Z,12.43
2022-12-29T08:37:49.486Z,11.82
2022-12-29T08:40:17.772Z,9.98
2022-12-29T08:42:47.382Z,11.77
2022-12-29T08:45:15.893Z,10.18
2022-12-29T08:47:44.219Z,11.65
2022-12-29T08:50:12.484Z,11.75
2022-12-29T08:52:40.918Z,11.02
2022-12-29T08:55:09.824Z,13.10
2022-12-29T08:57:38.972Z,12.00
2022-12-29T09:00:18.514Z,8.90
2022-12-29T09:02:46.978Z,11.25
2022-12-29T09:05:15.491Z,10.43
2022-12-29T09:07:44.002Z,9.43
2022-12-29T09:10:12.356Z,12.82
2022-12-29T09:12:40.869Z,12.60
2022-12-29T09:15:10.627Z,13.32
2022-12-29T09:17:43.099Z,13.13
2022-12-29T09:20:12.072Z,12.38
2022-12-29T09:22:40.517Z,12.20
2022-12-29T09:25:10.178Z,11.00
2022-12-29T09:27:38.722Z,11.23
2022-12-29T09:30:09.901Z,14.07
2022-12-29T09:32:44.882Z,14.95
2022-12-29T09:35:13.538Z,11.32
2022-12-29T09:37:41.851Z,13.90
2022-12-29T09:40:32.643Z,13.85
2022-12-29T09:43:19.663Z,9.38
2022-12-29T09:45:54.717Z,8.88
2022-12-29T09:48:28.357Z,11.20
2022-12-29T09:50:59.965Z,11.90
2022-12-29T09:53:32.155Z,11.55
2022-12-29T09:56:03.982Z,9.77
2022-12-29T09:58:38.301Z,11.23
2022-12-29T10:01:08.268Z,10.00
2022-12-29T10:03:48.862Z,12.05
2022-12-29T10:06:24.576Z,13.00
2022-12-29T10:09:01.889Z,11.80
2022-12-29T10:11:46.688Z,9.95
2022-12-29T10:14:31.300Z,15.55
2022-12-29T10:17:11.409Z,11.43
2022-12-29T10:20:16.989Z,11.05
2022-12-29T10:22:59.527Z,9.23
2022-12-29T10:25:33.014Z,12.32
2022-12-29T10:28:08.523Z,12.32
2022-12-29T10:30:38.031Z,12.35
2022-12-29T10:33:10.760Z,11.60
2022-12-29T10:35:43.888Z,11.30
2022-12-29T10:38:21.149Z,10.75
2022-12-29T10:40:53.857Z,10.63
2022-12-29T10:43:27.688Z,13.13
2022-12-29T10:45:58.756Z,12.05
2022-12-29T10:48:32.047Z,13.45
2022-12-29T10:51:04.563Z,14.80
2022-12-29T10:53:39.693Z,13.80
2022-12-29T10:56:16.742Z,12.68
2022-12-29T10:58:49.819Z,11.63
2022-12-29T11:01:19.899Z,10.90
2022-12-29T11:04:01.788Z,13.45
2022-12-29T11:06:31.613Z,11.25
2022-12-29T11:09:03.485Z,13.25
2022-12-29T11:11:37.554Z,15.82
2022-12-29T11:14:14.429Z,13.98
2022-12-29T11:16:45.300Z,12.85
2022-12-29T11:19:24.315Z,11.98
2022-12-29T11:21:54.212Z,10.57
2022-12-29T11:24:25.209Z,10.55
2022-12-29T11:26:58.415Z,12.50
2022-12-29T11:29:28.559Z,11.23
2022-12-29T11:32:00.086Z,12.27
2022-12-29T11:34:33.784Z,13.60
2022-12-29T11:37:07.382Z,17.98
2022-12-29T11:39:41.353Z,12.15
2022-12-29T11:42:16.941Z,11.82
2022-12-29T11:44:48.079Z,12.23
2022-12-29T11:47:27.700Z,12.90
2022-12-29T11:50:00.941Z,14.25
2022-12-29T11:52:36.171Z,12.48
2022-12-29T11:55:07.713Z,11.95
2022-12-29T11:57:37.481Z,12.07
2022-12-29T12:00:17.753Z,10.10
2022-12-29T12:02:53.903Z,11.02
2022-12-29T12:05:31.489Z,12.45
2022-12-29T12:08:06.510Z,13.23
2022-12-29T12:10:39.805Z,14.77
2022-12-29T12:13:19.156Z,12.00
2022-12-29T12:15:56.708Z,13.45
2022-12-29T12:18:36.164Z,13.07
2022-12-29T12:21:12.151Z,12.90
2022-12-29T12:23:49.816Z,11.50
2022-12-29T12:26:22.429Z,11.70
2022-12-29T12:28:56.293Z,15.57
2022-12-29T12:31:40.182Z,11.88
2022-12-29T12:34:15.779Z,14.65
2022-12-29T12:37:04.762Z,12.27
2022-12-29T12:39:43.464Z,12.95
2022-12-29T12:42:26.255Z,17.08
2022-12-29T12:45:06.341Z,14.32
2022-12-29T12:47:54.174Z,11.07
2022-12-29T12:50:54.292Z,12.85
2022-12-29T12:53:43.161Z,12.10
2022-12-29T12:56:34.018Z,10.27
2022-12-29T12:59:10.024Z,12.65
2022-12-29T13:01:48.088Z,12.82
2022-12-29T13:04:37.818Z,15.45
2022-12-29T13:07:16.631Z,12.25
2022-12-29T13:09:59.764Z,13.25
2022-12-29T13:12:39.395Z,14.27
2022-12-29T13:15:21.356Z,11.00
2022-12-29T13:17:57.312Z,15.23
2022-12-29T13:20:33.780Z,12.55
2022-12-29T13:23:08.174Z,12.20
2022-12-29T13:25:43.491Z,13.38
2022-12-29T13:28:21.250Z,11.60
2022-12-29T13:30:59.773Z,14.05
2022-12-29T13:33:37.898Z,15.45
2022-12-29T13:36:12.232Z,11.25
2022-12-29T13:38:45.311Z,12.88
2022-12-29T13:41:18.722Z,9.55
2022-12-29T13:43:51.643Z,14.13
2022-12-29T13:46:25.958Z,12.23
2022-12-29T13:48:57.502Z,11.15
2022-12-29T13:51:28.784Z,11.75
2022-12-29T13:54:09.155Z,12.07
2022-12-29T13:56:41.979Z,15.73
2022-12-29T13:59:21.738Z,14.10
2022-12-29T14:01:56.754Z,11.77
2022-12-29T14:04:27.771Z,18.10
2022-12-29T14:07:04.947Z,12.65
2022-12-29T14:09:47.400Z,13.18
2022-12-29T14:12:27.514Z,14.43
2022-12-29T14:15:06.078Z,13.65
2022-12-29T14:17:45.280Z,10.63
2022-12-29T14:20:21.906Z,12.60
2022-12-29T14:23:01.890Z,16.75
2022-12-29T14:26:11.412Z,12.93
2022-12-29T14:28:41.231Z,14.45
2022-12-29T14:31:42.134Z,12.45
2022-12-29T14:34:31.086Z,13.25
2022-12-29T14:37:01.027Z,18.30
2022-12-29T14:39:34.555Z,12.00
2022-12-29T14:42:05.083Z,14.95
2022-12-29T14:44:34.265Z,16.73
2022-12-29T14:47:08.652Z,16.23
2022-12-29T14:49:45.016Z,13.07
2022-12-29T14:52:21.272Z,14.60
2022-12-29T14:54:52.044Z,19.20
2022-12-29T14:57:38.343Z,16.63
2022-12-29T15:00:22.029Z,15.95
2022-12-29T15:02:57.087Z,18.90
2022-12-29T15:05:32.027Z,17.17
2022-12-29T15:08:01.846Z,16.13
2022-12-29T15:10:38.126Z,20.33
2022-12-29T15:13:15.279Z,15.27
2022-12-29T15:15:43.933Z,16.95
2022-12-29T15:18:26.567Z,14.82
2022-12-29T15:20:58.164Z,17.75
2022-12-29T15:23:27.065Z,14.82
2022-12-29T15:25:58.585Z,14.65
2022-12-29T15:28:28.146Z,15.45
2022-12-29T15:30:58.545Z,17.55
2022-12-29T15:33:29.839Z,16.65
2022-12-29T15:36:04.722Z,18.48
2022-12-29T15:38:40.039Z,15.05
2022-12-29T15:41:21.919Z,14.65
2022-12-29T15:44:01.074Z,14.02
2022-12-29T15:46:31.734Z,11.82
2022-12-29T15:49:01.664Z,17.85
2022-12-29T15:51:32.882Z,16.10
2022-12-29T15:54:01.288Z,15.18
2022-12-29T15:56:31.579Z,15.18
2022-12-29T15:59:00.252Z,16.45
2022-12-29T16:01:31.913Z,14.43
2022-12-29T16:04:03.572Z,15.55
2022-12-29T16:06:34.268Z,13.48
2022-12-29T16:09:04.997Z,19.38
2022-12-29T16:11:37.097Z,23.92
2022-12-29T16:14:11.601Z,15.55
2022-12-29T16:16:42.602Z,14.95
2022-12-29T16:19:15.988Z,16.17
2022-12-29T16:21:44.924Z,16.65
2022-12-29T16:24:17.862Z,13.68
2022-12-29T16:26:51.732Z,13.93
2022-12-29T16:29:22.735Z,14.77
2022-12-29T16:32:01.311Z,15.75
2022-12-29T16:34:33.927Z,15.43
2022-12-29T16:37:03.906Z,17.88
2022-12-29T16:39:37.167Z,14.65
2022-12-29T16:42:36.545Z,13.40
2022-12-29T16:45:41.803Z,15.63
2022-12-29T16:48:20.815Z,13.77
2022-12-29T16:50:51.233Z,16.27
2022-12-29T16:53:25.800Z,14.02
2022-12-29T16:55:55.362Z,19.98
2022-12-29T16:58:28.517Z,14.00
2022-12-29T17:00:57.918Z,13.75
2022-12-29T17:03:32.242Z,14.23
2022-12-29T17:06:02.162Z,14.50
2022-12-29T17:08:30.446Z,14.43
2022-12-29T17:11:16.833Z,14.10
2022-12-29T17:13:45.080Z,13.68
2022-12-29T17:16:13.594Z,14.13
2022-12-29T17:18:41.970Z,13.32
2022-12-29T17:21:11.437Z,16.73
2022-12-29T17:23:39.716Z,13.43
2022-12-29T17:26:10.241Z,16.77
2022-12-29T17:28:38.581Z,16.35
2022-12-29T17:31:09.065Z,14.57
2022-12-29T17:33:39.439Z,11.52
2022-12-29T17:36:08.042Z,12.85
2022-12-29T17:38:38.231Z,11.23
2022-12-29T17:41:10.412Z,14.50
2022-12-29T17:43:38.702Z,13.65
2022-12-29T17:46:09.101Z,14.38
2022-12-29T17:48:38.430Z,16.25
2022-12-29T17:51:06.873Z,14.90
2022-12-29T17:53:35.156Z,17.20
2022-12-29T17:56:04.850Z,16.75
2022-12-29T17:58:34.472Z,14.98
2022-12-29T18:01:03.731Z,15.45
2022-12-29T18:03:34.658Z,15.35
2022-12-29T18:06:05.976Z,16.33
2022-12-29T18:08:34.804Z,18.35
2022-12-29T18:11:05.032Z,13.55
2022-12-29T18:13:45.603Z,18.80
2022-12-29T18:16:15.668Z,15.48
2022-12-29T18:18:43.925Z,19.63
2022-12-29T18:21:18.403Z,17.33
2022-12-29T18:23:47.001Z,16.85
2022-12-29T18:26:25.489Z,17.80
2022-12-29T18:28:55.949Z,20.35
2022-12-29T18:31:26.128Z,14.48
2022-12-29T18:33:55.997Z,15.43
2022-12-29T18:36:24.894Z,18.73
2022-12-29T18:38:54.873Z,22.02
2022-12-29T18:41:25.853Z,16.17
2022-12-29T18:43:54.089Z,16.38
2022-12-29T18:46:23.457Z,17.77
2022-12-29T18:48:52.365Z,21.92
2022-12-29T18:51:22.205Z,16.52
2022-12-29T18:53:53.122Z,20.88
2022-12-29T18:56:22.691Z,19.95
2022-12-29T18:58:53.606Z,21.30
2022-12-29T19:01:24.875Z,22.77
2022-12-29T19:03:53.652Z,17.33
2022-12-29T19:06:22.156Z,18.40
2022-12-29T19:08:50.480Z,20.55
2022-12-29T19:11:18.909Z,17.73
2022-12-29T19:13:47.230Z,18.67
2022-12-29T19:16:20.549Z,20.60
2022-12-29T19:19:05.851Z,22.33
2022-12-29T19:21:36.763Z,21.67
2022-12-29T19:24:05.287Z,21.45
2022-12-29T19:26:36.455Z,19.05
2022-12-29T19:29:05.884Z,18.70
2022-12-29T19:31:35.921Z,16.80
2022-12-29T19:34:04.293Z,26.58
2022-12-29T19:36:32.670Z,21.77
2022-12-29T19:39:01.030Z,20.90
2022-12-29T19:41:29.259Z,23.60
2022-12-29T19:43:57.525Z,22.63
2022-12-29T19:46:26.042Z,19.77
2022-12-29T19:48:58.835Z,18.55
2022-12-29T19:51:27.853Z,18.30
2022-12-29T19:53:56.316Z,17.75
2022-12-29T19:56:24.509Z,19.52
2022-12-29T19:58:52.761Z,22.08
2022-12-29T20:01:23.107Z,20.85
2022-12-29T20:03:52.139Z,20.65
2022-12-29T20:06:21.856Z,20.50
2022-12-29T20:08:50.166Z,20.10
2022-12-29T20:11:19.491Z,20.98
2022-12-29T20:13:48.350Z,19.50
2022-12-29T20:16:18.245Z,22.13
2022-12-29T20:18:46.940Z,20.85
2022-12-29T20:21:17.761Z,23.02
2022-12-29T20:23:48.295Z,19.77
2022-12-29T20:26:18.479Z,22.25
2022-12-29T20:28:47.481Z,19.13
2022-12-29T20:31:19.660Z,20.60
2022-12-29T20:33:48.905Z,21.50
2022-12-29T20:36:20.129Z,19.90
2022-12-29T20:38:51.564Z,20.38
2022-12-29T20:41:20.501Z,20.60
2022-12-29T20:43:48.680Z,21.20
2022-12-29T20:46:21.296Z,19.50
2022-12-29T20:48:51.310Z,20.48
2022-12-29T20:51:20.998Z,20.38
2022-12-29T20:53:50.888Z,20.95
2022-12-29T20:56:21.869Z,18.58
2022-12-29T20:59:25.805Z,21.85
2022-12-29T21:01:39.464Z,24.02
2022-12-29T21:04:08.166Z,20.67
2022-12-29T21:06:37.051Z,21.02
2022-12-29T21:09:07.771Z,22.38
2022-12-29T21:11:36.245Z,21.08
2022-12-29T21:14:04.635Z,18.20
2022-12-29T21:16:32.970Z,19.77
2022-12-29T21:19:01.418Z,19.00
2022-12-29T21:21:29.837Z,18.13
2022-12-29T21:24:05.576Z,23.95
2022-12-29T21:26:35.883Z,20.20
2022-12-29T21:29:04.443Z,18.75
2022-12-29T21:31:34.554Z,20.42
2022-12-29T21:34:03.648Z,18.38
2022-12-29T21:36:32.983Z,20.02
2022-12-29T21:39:03.462Z,20.92
2022-12-29T21:41:32.276Z,18.85
2022-12-29T21:44:20.233Z,33.03
2022-12-29T21:46:48.851Z,19.33
2022-12-29T21:49:17.293Z,19.98
2022-12-29T21:51:51.563Z,20.45
2022-12-29T21:54:38.547Z,20.33
2022-12-29T21:57:07.652Z,17.10
2022-12-29T21:59:54.449Z,20.13
2022-12-29T22:02:42.841Z,19.30
2022-12-29T22:05:30.591Z,19.10
2022-12-29T22:08:16.672Z,18.73
2022-12-29T22:11:04.155Z,17.67
2022-12-29T22:13:33.099Z,20.27
2022-12-29T22:16:04.409Z,23.48
2022-12-29T22:18:33.008Z,20.20
2022-12-29T22:21:04.702Z,21.88
2022-12-29T22:23:33.005Z,22.08
2022-12-29T22:26:04.759Z,21.75
2022-12-29T22:28:33.537Z,20.00
2022-12-29T22:31:03.045Z,21.77
2022-12-29T22:33:31.427Z,20.48
2022-12-29T22:35:59.692Z,18.75
2022-12-29T22:38:27.915Z,16.65
2022-12-29T22:41:00.909Z,19.00
2022-12-29T22:43:30.018Z,20.45
2022-12-29T22:46:05.171Z,18.60
2022-12-29T22:48:34.025Z,20.20
2022-12-29T22:51:02.666Z,19.05
2022-12-29T22:53:31.258Z,20.85
2022-12-29T22:56:04.369Z,17.40
2022-12-29T22:58:32.706Z,21.65
2022-12-29T23:01:01.380Z,16.77
2022-12-29T23:03:31.051Z,18.65
2022-12-29T23:05:59.830Z,20.52
2022-12-29T23:08:28.804Z,20.23
2022-12-29T23:10:56.952Z,20.02
2022-12-29T23:13:25.184Z,18.90
2022-12-29T23:15:53.589Z,20.85
2022-12-29T23:18:22.048Z,20.20
2022-12-29T23:20:52.330Z,17.70
2022-12-29T23:23:48.441Z,19.08
2022-12-29T23:26:18.102Z,17.58
2022-12-29T23:28:46.284Z,20.27
2022-12-29T23:31:15.191Z,20.55
2022-12-29T23:33:43.579Z,21.17
2022-12-29T23:36:13.426Z,21.25
2022-12-29T23:38:41.978Z,20.98
2022-12-29T23:41:11.276Z,18.58
2022-12-29T23:43:40.082Z,19.27
2022-12-29T23:46:09.719Z,19.83
2022-12-29T23:48:38.207Z,23.08
2022-12-29T23:51:07.007Z,18.15
2022-12-29T23:53:38.749Z,17.38
2022-12-29T23:56:08.471Z,18.95
2022-12-29T23:58:37.166Z,18.17
